TABULAR FORECAST OF EN-ROUTE CONDITIONS LOW LEVEL                   MODEL TA1

DATE: OCTOBER 20, 2014                                                               HEIGHT IN FEET MSL

VALID FOR DEPARTURE BETWEEN: 15.00UTC AND 21.30UTC

AND ARRIVAL BETWEEN: 15.00UTC AND 21.30UTC

SPECIAL FEATURES OF THE METEOROLOGICAL SITUATION;

AN APPROACHING WAVE AFFECTS THE AREA, MOSTLY THE NORTHEAST

07° N                            4° N                            2° N

UPPER WINDS

(DEGREES TRUE AND KNOTS)

                              10000FT

                              5000FT

TEMPERATURE 2000FT

(DEGREES CELSIUS)

 

 

                             090/20   PS  09

                             050/15   PS  18          

                             030/15   PS  22  

 

CLOUDS

                                     XXX

            ISOL TCU/CB ——

                                      1500

                                   9000                    

 SCT LOC BKN CU ——

                                   1500                    

VISIBILITY

4 – 8KM IN SHOWERS

SIGNIFICANT WEATHER

LOCALLY A FEW SHOWERS, BRIEFLY MODERATE, AND THUNDERSTORMS WITH GUSTY WINDS

MOSTLY ACROSS THE COASTAL AREA

HEIGHT OF 0ēC ISOTHERM (ft)

+/- 16000

FORECAST LOWEST QNH (hPa)

1010

SUPPLEMENTARY INFORMATION

Issued at NMC on: 15.00UTC OCTOBER 20, 2014 BY FORECASTER: D. SAMUEL.

 

Note:

1.   Positive and negative values are indicated by the prefix PS (plus) and M (minus) respectively.

2.   When a single numerical value of an element is given in a forecast it is to be interpreted as representing

the most probable mean of a range of values which the element may assume during the period of the forecast.

 

ABBREVIATIONS: SKC - 0 oktas, FEW - 1 to 2 oktas, SCT - 3 to 4 oktas, BKN - 5 to 7 oktas, OVC - 8 oktas,

LYR - Layered, LOC - Locally, ISOL - Isolated, OCNL - Occasional, FRQ - Frequent, EMBD - Embedded.

 

METAR SMJP 201500Z 07008KT 9999 BKN035 33/23 Q1013 NOSIG=

METAR SMZO 201500Z 09006KT 9999 SCT035 33/21 Q1013 NOSIG=

METAR SMNI 201500Z 07009KT 9999 FEW020 31/24 Q1013=